Time;durP1;ratioP1;P1;durP2;ratioP2;P2;SDS_P1;SDS_P2;PMS_P1;PMS_P2;Temp;Humidity;BMP_temperature;BMP_pressure;BME280_temperature;BME280_humidity;BME280_pressure;Samples;Min_cycle;Max_cycle;Signal;HPM_P1;HPM_P2
2023/12/28 00:00:19;;;;;;;3.30;1.58;;;14.10;66.70;15.50;100569.00;;;;5032527;28;20200;-73
2023/12/28 00:02:46;;;;;;;2.58;1.73;;;14.10;66.60;15.60;100567.00;;;;5034916;28;20203;-73
2023/12/28 00:05:13;;;;;;;2.80;1.88;;;14.10;66.60;15.60;100567.00;;;;5034773;28;20231;-75
2023/12/28 00:07:40;;;;;;;3.45;1.50;;;14.10;66.60;15.60;100566.00;;;;5033911;28;20228;-74
2023/12/28 00:10:08;;;;;;;3.13;1.70;;;14.10;66.70;15.60;100564.00;;;;5037676;28;20194;-73
2023/12/28 00:12:35;;;;;;;2.13;1.90;;;14.20;66.70;15.70;100561.00;;;;5047085;28;20244;-73
2023/12/28 00:15:04;;;;;;;2.40;1.50;;;14.20;66.70;15.70;100582.00;;;;5031155;28;20668;-74
2023/12/28 00:17:31;;;;;;;4.32;2.28;;;14.20;66.70;15.70;100576.00;;;;5034957;28;20224;-75
2023/12/28 00:19:58;;;;;;;3.80;2.08;;;14.20;66.70;15.70;100602.00;;;;5034530;28;20199;-74
2023/12/28 00:22:25;;;;;;;1.95;1.63;;;14.30;66.80;15.70;100590.00;;;;5025376;28;20239;-74
2023/12/28 00:24:53;;;;;;;2.40;1.63;;;14.30;66.80;15.70;100591.00;;;;5033945;28;20224;-73
2023/12/28 00:27:20;;;;;;;2.63;2.20;;;14.30;66.80;15.80;100605.00;;;;5044087;28;20199;-72
2023/12/28 00:29:47;;;;;;;2.30;1.83;;;14.30;66.80;15.80;100608.00;;;;5035401;28;20197;-73
2023/12/28 00:32:15;;;;;;;2.58;1.95;;;14.40;66.90;15.80;100602.00;;;;5037512;28;20192;-73
2023/12/28 00:34:42;;;;;;;4.40;1.73;;;14.40;66.90;15.80;100606.00;;;;5037754;28;20675;-73
2023/12/28 00:37:09;;;;;;;2.92;1.40;;;14.40;66.80;15.80;100623.00;;;;5036742;28;20588;-73
2023/12/28 00:39:36;;;;;;;2.90;1.35;;;14.40;66.80;15.80;100609.00;;;;5041452;28;20287;-74
2023/12/28 00:42:04;;;;;;;4.38;1.90;;;14.40;66.70;15.90;100614.00;;;;5036760;28;20201;-74
2023/12/28 00:44:31;;;;;;;3.42;1.70;;;14.40;66.70;15.90;100612.00;;;;5031791;28;20576;-73
2023/12/28 00:47:00;;;;;;;2.33;1.60;;;14.40;66.60;15.90;100606.00;;;;5038245;28;20287;-73
2023/12/28 00:49:29;;;;;;;4.10;1.85;;;14.50;66.60;15.80;100625.00;;;;5052606;28;20192;-73
2023/12/28 00:51:56;;;;;;;2.63;1.33;;;14.40;66.50;15.80;100624.00;;;;5031220;28;20204;-73
2023/12/28 00:54:23;;;;;;;5.38;1.73;;;14.40;66.50;15.80;100625.00;;;;5034462;28;20211;-73
2023/12/28 00:56:50;;;;;;;2.55;1.70;;;14.40;66.40;15.80;100637.00;;;;5046658;28;20287;-73
2023/12/28 00:59:17;;;;;;;3.22;1.83;;;14.40;66.50;15.80;100625.00;;;;5033606;28;20198;-73
2023/12/28 01:01:44;;;;;;;2.35;1.70;;;14.40;66.50;15.70;100626.00;;;;5040398;28;20198;-75
2023/12/28 01:04:11;;;;;;;3.03;1.67;;;14.40;66.50;15.80;100624.00;;;;5051798;28;20218;-73
2023/12/28 01:06:40;;;;;;;3.55;1.88;;;14.40;66.40;15.70;100624.00;;;;5036258;28;20232;-73
2023/12/28 01:09:07;;;;;;;1.83;1.17;;;14.40;66.40;15.70;100616.00;;;;5033351;28;20203;-75
2023/12/28 01:11:34;;;;;;;2.40;1.75;;;14.30;66.40;15.70;100621.00;;;;5030781;28;20237;-73
2023/12/28 01:14:02;;;;;;;3.33;1.92;;;14.30;66.40;15.70;100605.00;;;;5033673;28;20211;-73
2023/12/28 01:16:29;;;;;;;3.38;2.10;;;14.30;66.30;15.60;100621.00;;;;5033423;28;20224;-74
2023/12/28 01:18:56;;;;;;;2.78;1.60;;;14.30;66.30;15.60;100620.00;;;;5033620;28;20199;-73
2023/12/28 01:21:24;;;;;;;3.05;1.58;;;14.30;66.50;15.60;100625.00;;;;5036692;28;20202;-72
2023/12/28 01:23:53;;;;;;;4.65;1.80;;;14.20;66.40;15.60;100631.00;;;;5033989;28;20207;-73
2023/12/28 01:26:21;;;;;;;5.05;1.27;;;14.20;66.40;15.60;100633.00;;;;5040360;28;20713;-73
2023/12/28 01:28:48;;;;;;;4.47;1.58;;;14.20;66.40;15.60;100640.00;;;;5035866;28;20197;-72
2023/12/28 01:31:15;;;;;;;5.20;1.75;;;14.20;66.40;15.50;100647.00;;;;5033496;28;20206;-73
2023/12/28 01:33:42;;;;;;;5.85;1.65;;;14.10;66.40;15.50;100641.00;;;;5033115;28;20224;-75
2023/12/28 01:36:18;;;;;;;2.28;1.25;;;14.10;66.50;15.40;100644.00;;;;5032818;28;20324;-73
2023/12/28 01:38:45;;;;;;;2.83;1.40;;;14.10;66.50;15.50;100635.00;;;;5031913;28;20188;-73
2023/12/28 01:41:15;;;;;;;3.10;1.50;;;14.10;66.60;15.40;100645.00;;;;5033540;28;20772;-72
2023/12/28 01:43:42;;;;;;;3.15;1.65;;;14.10;66.60;15.50;100640.00;;;;5032345;28;20193;-73
2023/12/28 01:46:17;;;;;;;3.58;1.77;;;14.00;66.60;15.40;100641.00;;;;5033829;28;20315;-75
2023/12/28 01:48:47;;;;;;;3.10;1.70;;;14.00;66.60;15.40;100643.00;;;;5032352;28;20187;-73
2023/12/28 01:51:16;;;;;;;1.95;1.55;;;14.00;66.60;15.40;100650.00;;;;5023749;28;20192;-73
2023/12/28 01:53:44;;;;;;;1.75;1.25;;;14.00;66.60;15.40;100659.00;;;;5038657;28;20189;-72
2023/12/28 01:56:13;;;;;;;2.00;1.40;;;14.00;66.70;15.40;100651.00;;;;5033577;28;20203;-72
2023/12/28 01:58:43;;;;;;;2.65;1.75;;;13.90;66.70;15.30;100655.00;;;;5032388;28;20196;-73
2023/12/28 02:01:11;;;;;;;2.38;1.65;;;13.90;66.70;15.30;100651.00;;;;5015935;28;20242;-73
2023/12/28 02:03:39;;;;;;;3.53;1.83;;;13.90;66.70;15.30;100652.00;;;;5036007;28;20197;-72
2023/12/28 02:06:08;;;;;;;2.92;1.92;;;13.90;66.80;15.30;100652.00;;;;5031916;28;20597;-73
2023/12/28 02:08:35;;;;;;;2.75;1.80;;;13.90;66.80;15.30;100640.00;;;;5032301;28;20200;-71
2023/12/28 02:11:02;;;;;;;3.58;1.60;;;13.90;66.80;15.30;100651.00;;;;5031171;28;20226;-71
2023/12/28 02:13:31;;;;;;;4.18;1.63;;;13.90;66.90;15.30;100649.00;;;;5031342;28;20188;-72
2023/12/28 02:16:06;;;;;;;3.47;1.75;;;13.90;67.00;15.20;100647.00;;;;5032042;28;20202;-74
2023/12/28 02:18:40;;;;;;;2.95;1.70;;;13.80;66.90;15.20;100653.00;;;;5032807;28;20191;-72
2023/12/28 02:21:09;;;;;;;2.38;1.55;;;13.80;67.00;15.20;100655.00;;;;5032127;28;20283;-73
2023/12/28 02:23:36;;;;;;;3.45;1.60;;;13.90;67.00;15.30;100646.00;;;;5034357;28;20189;-75
2023/12/28 02:26:05;;;;;;;3.63;1.80;;;13.80;67.00;15.20;100649.00;;;;5030119;28;20228;-74
2023/12/28 02:28:32;;;;;;;1.83;1.25;;;13.80;67.10;15.30;100649.00;;;;5028638;28;20298;-73
2023/12/28 02:31:04;;;;;;;2.83;1.55;;;13.80;67.10;15.20;100639.00;;;;5038438;28;20650;-72
2023/12/28 02:33:44;;;;;;;2.08;1.25;;;13.80;67.20;15.20;100645.00;;;;5032987;28;20196;-72
2023/12/28 02:36:16;;;;;;;3.35;1.00;;;13.80;67.30;15.30;100652.00;;;;5033947;28;20192;-72
2023/12/28 02:38:46;;;;;;;2.67;1.30;;;13.90;67.40;15.30;100650.00;;;;5030943;28;20193;-72
2023/12/28 02:41:14;;;;;;;5.05;1.60;;;13.90;67.40;15.30;100640.00;;;;5032106;28;20193;-73
2023/12/28 02:43:42;;;;;;;1.98;1.10;;;13.90;67.50;15.40;100632.00;;;;5031153;28;20192;-73
2023/12/28 02:46:09;;;;;;;3.25;1.50;;;13.90;67.50;15.40;100628.00;;;;5031770;28;20314;-72
2023/12/28 02:48:36;;;;;;;2.28;1.40;;;13.90;67.50;15.40;100635.00;;;;5031308;28;20681;-72
2023/12/28 02:51:03;;;;;;;2.92;1.13;;;13.90;67.40;15.40;100626.00;;;;5030940;28;20208;-72
2023/12/28 02:53:30;;;;;;;3.20;1.38;;;14.00;67.40;15.40;100620.00;;;;5043068;28;20203;-72
2023/12/28 02:55:57;;;;;;;3.65;1.30;;;14.00;67.40;15.50;100623.00;;;;5032209;28;20295;-72
2023/12/28 02:58:25;;;;;;;2.67;1.30;;;14.00;67.30;15.50;100613.00;;;;5031327;28;20195;-72
2023/12/28 03:00:52;;;;;;;4.95;1.70;;;14.00;67.30;15.40;100603.00;;;;5032930;28;20200;-72
2023/12/28 03:03:20;;;;;;;3.28;1.38;;;14.00;67.20;15.50;100613.00;;;;5031827;28;20198;-72
2023/12/28 03:05:47;;;;;;;4.40;1.30;;;14.00;67.20;15.50;100612.00;;;;5031053;28;20710;-73
2023/12/28 03:08:14;;;;;;;3.30;0.90;;;14.00;67.10;15.40;100613.00;;;;5023955;28;20192;-73
2023/12/28 03:10:41;;;;;;;4.75;1.40;;;14.00;67.00;15.40;100615.00;;;;5033040;28;20202;-72
2023/12/28 03:13:08;;;;;;;1.33;1.00;;;14.10;67.10;15.40;100622.00;;;;5036011;28;20189;-71
2023/12/28 03:15:36;;;;;;;1.45;0.98;;;14.00;67.00;15.40;100611.00;;;;5030719;28;20195;-72
2023/12/28 03:18:04;;;;;;;2.20;1.15;;;14.10;67.10;15.40;100623.00;;;;5031816;28;20207;-75
2023/12/28 03:20:31;;;;;;;6.20;1.50;;;14.00;67.00;15.40;100622.00;;;;5031712;28;20202;-72
2023/12/28 03:22:58;;;;;;;4.32;1.40;;;14.00;67.80;15.50;100626.00;;;;5035749;28;21598;-72
2023/12/28 03:25:25;;;;;;;2.75;0.95;;;14.10;67.10;15.50;100626.00;;;;5036588;28;20223;-72
2023/12/28 03:27:52;;;;;;;8.20;1.52;;;14.10;67.10;15.50;100635.00;;;;5037112;28;20575;-72
2023/12/28 03:30:19;;;;;;;3.42;1.52;;;14.10;67.10;15.50;100627.00;;;;5030243;28;20192;-72
2023/12/28 03:32:47;;;;;;;5.03;1.27;;;14.10;67.10;15.50;100620.00;;;;5031230;28;20202;-72
2023/12/28 03:35:14;;;;;;;3.30;1.25;;;14.10;67.10;15.60;100620.00;;;;5030352;28;20196;-72
2023/12/28 03:37:41;;;;;;;2.25;1.20;;;14.10;67.10;15.60;100606.00;;;;5031433;28;20283;-72
2023/12/28 03:40:10;;;;;;;2.33;1.20;;;14.10;67.10;15.60;100611.00;;;;5030994;28;20197;-72
2023/12/28 03:42:38;;;;;;;2.88;1.20;;;14.20;67.10;15.60;100604.00;;;;5045371;28;20282;-72
2023/12/28 03:45:06;;;;;;;3.80;1.63;;;14.20;67.00;15.60;100602.00;;;;5035487;28;20204;-74
2023/12/28 03:47:33;;;;;;;2.58;1.65;;;14.20;67.00;15.60;100599.00;;;;5030875;28;20223;-73
2023/12/28 03:50:01;;;;;;;4.38;1.15;;;14.20;67.00;15.60;100609.00;;;;5030732;28;20627;-73
2023/12/28 03:52:29;;;;;;;2.33;1.13;;;14.20;66.90;15.70;100602.00;;;;5037020;28;20200;-73
2023/12/28 03:54:56;;;;;;;2.83;1.40;;;14.30;66.90;15.60;100610.00;;;;5033315;28;20666;-73
2023/12/28 03:57:24;;;;;;;4.03;1.63;;;14.30;66.80;15.60;100600.00;;;;5030710;28;20206;-75
2023/12/28 03:59:51;;;;;;;5.53;1.88;;;14.30;66.70;15.60;100608.00;;;;5030937;28;20193;-74
2023/12/28 04:02:18;;;;;;;4.35;1.83;;;14.30;66.70;15.60;100604.00;;;;5036314;28;20203;-74
2023/12/28 04:04:45;;;;;;;3.38;1.02;;;14.30;66.60;15.60;100612.00;;;;5031145;28;20197;-73
2023/12/28 04:07:14;;;;;;;6.53;1.65;;;14.20;66.50;15.60;100616.00;;;;5030535;28;20232;-73
2023/12/28 04:09:40;;;;;;;4.38;1.95;;;14.20;66.50;15.60;100607.00;;;;5031363;28;20202;-73
2023/12/28 04:12:08;;;;;;;2.42;1.25;;;14.20;66.50;15.60;100594.00;;;;5039099;28;20215;-74
2023/12/28 04:14:36;;;;;;;2.22;1.23;;;14.20;66.40;15.50;100609.00;;;;5038452;28;20203;-72
2023/12/28 04:17:03;;;;;;;3.58;1.30;;;14.20;66.40;15.50;100612.00;;;;5034404;28;20207;-73
2023/12/28 04:19:31;;;;;;;12.25;1.60;;;14.20;66.40;15.50;100613.00;;;;5034576;28;20197;-73
2023/12/28 04:21:58;;;;;;;5.10;1.40;;;14.20;66.40;15.50;100624.00;;;;5039182;28;20564;-76
2023/12/28 04:24:27;;;;;;;8.13;1.55;;;14.20;66.40;15.50;100611.00;;;;5044294;28;20196;-73
2023/12/28 04:26:55;;;;;;;3.83;1.40;;;14.20;66.30;15.50;100605.00;;;;5044255;28;20226;-73
2023/12/28 04:29:22;;;;;;;4.68;1.17;;;14.20;66.30;15.50;100598.00;;;;5030821;28;20598;-73
2023/12/28 04:31:49;;;;;;;2.58;1.20;;;14.10;66.30;15.40;100605.00;;;;5032687;28;20559;-74
2023/12/28 04:34:16;;;;;;;3.83;1.58;;;14.10;66.30;15.40;100614.00;;;;5031691;28;20204;-73
2023/12/28 04:36:44;;;;;;;3.83;1.58;;;14.10;66.30;15.40;100616.00;;;;5032029;28;20196;-73
2023/12/28 04:39:11;;;;;;;9.27;1.50;;;14.10;66.30;15.40;100630.00;;;;5043873;28;20681;-73
2023/12/28 04:41:39;;;;;;;5.47;1.42;;;14.10;66.40;15.40;100628.00;;;;5040350;28;20199;-74
2023/12/28 04:44:06;;;;;;;5.65;1.23;;;14.10;67.00;15.40;100627.00;;;;5033737;28;20197;-73
2023/12/28 04:46:38;;;;;;;4.70;1.10;;;14.10;66.60;15.50;100621.00;;;;5033870;28;20262;-73
2023/12/28 04:49:05;;;;;;;5.95;1.55;;;14.10;66.60;15.50;100618.00;;;;5034484;28;20193;-73
2023/12/28 04:51:32;;;;;;;9.23;1.65;;;14.10;66.60;15.50;100615.00;;;;5035711;28;20203;-73
2023/12/28 04:53:59;;;;;;;5.38;1.50;;;14.10;66.60;15.50;100615.00;;;;5044391;28;20203;-74
2023/12/28 04:56:26;;;;;;;5.30;1.35;;;14.10;66.60;15.50;100606.00;;;;5034350;28;20210;-73
2023/12/28 04:58:54;;;;;;;7.72;1.35;;;14.10;66.60;15.50;100604.00;;;;5036030;28;20191;-72
2023/12/28 05:01:22;;;;;;;6.43;1.90;;;14.20;66.60;15.50;100605.00;;;;5035722;28;20192;-75
2023/12/28 05:03:49;;;;;;;5.65;1.80;;;14.20;66.60;15.60;100616.00;;;;5015890;28;20650;-73
2023/12/28 05:06:16;;;;;;;4.72;1.13;;;14.20;66.50;15.60;100619.00;;;;5033579;28;20243;-76
2023/12/28 05:08:43;;;;;;;3.55;1.23;;;14.20;66.50;15.60;100635.00;;;;5033793;28;20196;-74
2023/12/28 05:11:10;;;;;;;3.88;1.40;;;14.20;66.40;15.60;100626.00;;;;5033340;28;20212;-75
2023/12/28 05:13:37;;;;;;;4.25;1.38;;;14.30;66.50;15.60;100630.00;;;;5040055;28;20188;-73
2023/12/28 05:16:07;;;;;;;5.57;1.13;;;14.20;66.40;15.60;100620.00;;;;5031596;28;20197;-75
2023/12/28 05:18:34;;;;;;;4.75;1.02;;;14.30;66.40;15.70;100619.00;;;;5037618;28;20235;-74
2023/12/28 05:21:01;;;;;;;4.68;1.30;;;14.30;66.40;15.70;100630.00;;;;5041355;28;20670;-73
2023/12/28 05:23:28;;;;;;;3.22;1.30;;;14.30;66.30;15.70;100629.00;;;;5034571;28;20201;-74
2023/12/28 05:25:55;;;;;;;3.75;1.13;;;14.30;66.30;15.70;100622.00;;;;5033791;28;20228;-74
2023/12/28 05:28:22;;;;;;;2.05;1.02;;;14.30;66.20;15.80;100609.00;;;;5045559;28;20262;-74
2023/12/28 05:30:49;;;;;;;7.72;1.80;;;14.40;66.80;15.80;100627.00;;;;5038467;28;20279;-74
2023/12/28 05:33:17;;;;;;;6.30;1.48;;;14.40;66.20;15.80;100627.00;;;;5032797;28;20208;-73
2023/12/28 05:35:44;;;;;;;3.85;0.98;;;14.40;65.90;15.80;100625.00;;;;5033106;28;20188;-74
2023/12/28 05:38:11;;;;;;;7.57;1.83;;;14.40;65.90;15.80;100620.00;;;;5033103;28;20208;-73
2023/12/28 05:40:38;;;;;;;5.53;1.20;;;14.40;65.80;15.80;100626.00;;;;5039667;28;20202;-74
2023/12/28 05:43:05;;;;;;;7.28;1.02;;;14.50;65.90;15.80;100616.00;;;;5031437;28;20574;-73
2023/12/28 05:45:32;;;;;;;6.80;1.23;;;14.50;65.60;15.80;100625.00;;;;5032449;28;20195;-76
2023/12/28 05:47:59;;;;;;;6.55;1.63;;;14.50;65.70;15.90;100622.00;;;;5038517;28;20194;-73
2023/12/28 05:50:28;;;;;;;5.88;1.38;;;14.50;65.70;15.90;100616.00;;;;5047833;28;20205;-73
2023/12/28 05:52:55;;;;;;;5.28;1.30;;;14.50;65.70;15.90;100607.00;;;;5032751;28;20193;-74
2023/12/28 05:55:22;;;;;;;3.72;1.08;;;14.50;65.70;16.00;100620.00;;;;5035289;28;20198;-73
2023/12/28 05:57:49;;;;;;;9.13;1.60;;;14.60;65.80;16.00;100600.00;;;;5034045;28;20201;-76
2023/12/28 06:00:17;;;;;;;5.57;1.27;;;14.60;65.50;16.00;100623.00;;;;5033327;28;20227;-74
2023/12/28 06:02:46;;;;;;;3.33;0.90;;;14.60;65.50;16.00;100638.00;;;;5049950;28;20565;-74
2023/12/28 06:05:13;;;;;;;6.43;1.33;;;14.60;65.40;16.00;100638.00;;;;5033063;28;20192;-73
2023/12/28 06:07:42;;;;;;;3.53;1.20;;;14.60;65.20;16.00;100637.00;;;;5048017;28;20235;-74
2023/12/28 06:10:10;;;;;;;6.13;1.85;;;14.60;65.30;16.00;100631.00;;;;5038338;28;20208;-73
2023/12/28 06:12:37;;;;;;;6.57;1.25;;;14.60;65.20;16.00;100629.00;;;;5032341;28;20216;-73
2023/12/28 06:15:05;;;;;;;5.63;1.35;;;14.70;65.40;16.00;100640.00;;;;5039965;28;20196;-75
2023/12/28 06:17:32;;;;;;;7.15;1.60;;;14.70;65.30;16.00;100648.00;;;;5037524;28;20583;-72
2023/12/28 06:19:59;;;;;;;7.38;1.70;;;14.70;65.20;16.00;100627.00;;;;5032473;28;20286;-75
2023/12/28 06:22:27;;;;;;;7.50;1.33;;;14.70;65.10;16.10;100623.00;;;;5032901;28;20202;-74
2023/12/28 06:24:56;;;;;;;2.65;0.82;;;14.70;65.10;16.10;100642.00;;;;5038559;28;20189;-74
2023/12/28 06:27:23;;;;;;;6.60;1.13;;;14.70;65.20;16.10;100637.00;;;;5035704;28;20216;-77
2023/12/28 06:29:50;;;;;;;4.00;1.30;;;14.70;65.20;16.10;100641.00;;;;5029857;28;20192;-74
2023/12/28 06:32:18;;;;;;;3.88;1.23;;;14.70;65.10;16.10;100649.00;;;;5031337;28;20560;-74
2023/12/28 06:34:45;;;;;;;8.13;1.40;;;14.70;65.20;16.10;100652.00;;;;5024761;28;20192;-73
2023/12/28 06:37:12;;;;;;;4.32;1.30;;;14.70;65.00;16.10;100654.00;;;;5029314;28;20783;-72
2023/12/28 06:39:40;;;;;;;5.93;1.30;;;14.70;64.80;16.10;100664.00;;;;5029874;28;20196;-75
2023/12/28 06:42:08;;;;;;;5.72;1.23;;;14.80;64.90;16.10;100658.00;;;;5031073;28;20192;-76
2023/12/28 06:44:35;;;;;;;8.48;1.38;;;14.80;64.90;16.10;100655.00;;;;5031908;28;20291;-73
2023/12/28 06:47:04;;;;;;;5.80;1.83;;;14.80;64.90;16.10;100652.00;;;;5028748;28;20228;-73
2023/12/28 06:49:36;;;;;;;6.85;1.70;;;14.80;64.80;16.20;100656.00;;;;5028731;28;20203;-74
2023/12/28 06:52:07;;;;;;;10.95;1.90;;;14.80;64.80;16.20;100662.00;;;;5027427;28;20200;-74
2023/12/28 06:54:37;;;;;;;9.07;1.38;;;14.80;64.80;16.20;100661.00;;;;5016400;28;20197;-75
2023/12/28 06:57:10;;;;;;;11.70;1.55;;;14.80;64.80;16.20;100642.00;;;;5030704;28;20223;-74
2023/12/28 06:59:39;;;;;;;4.65;1.35;;;14.80;64.50;16.20;100651.00;;;;5033407;28;20291;-75
2023/12/28 07:02:12;;;;;;;7.55;1.50;;;14.80;64.60;16.20;100658.00;;;;5028824;28;20681;-74
2023/12/28 07:04:46;;;;;;;9.05;1.73;;;14.80;64.60;16.10;100672.00;;;;5026969;28;20232;-73
2023/12/28 07:07:19;;;;;;;6.22;1.20;;;14.80;64.50;16.10;100679.00;;;;5035451;28;20680;-74
2023/12/28 07:09:49;;;;;;;7.00;1.73;;;14.80;64.30;16.10;100657.00;;;;5023229;28;20732;-75
2023/12/28 07:12:28;;;;;;;9.30;1.52;;;14.80;64.40;16.00;100663.00;;;;5021364;28;20208;-73
2023/12/28 07:15:03;;;;;;;8.73;2.00;;;14.80;64.30;16.00;100662.00;;;;5024078;28;20195;-76
2023/12/28 07:17:30;;;;;;;4.80;1.08;;;14.70;64.20;16.10;100670.00;;;;5027522;28;20553;-74
2023/12/28 07:20:06;;;;;;;5.05;1.25;;;14.70;64.20;16.00;100674.00;;;;5031801;28;20180;-73
2023/12/28 07:22:41;;;;;;;5.32;1.58;;;14.70;64.20;16.00;100677.00;;;;5035549;28;20188;-75
2023/12/28 07:25:12;;;;;;;5.75;1.48;;;14.70;64.20;16.00;100692.00;;;;5031641;28;20203;-75
2023/12/28 07:27:44;;;;;;;7.45;2.03;;;14.70;64.20;15.90;100696.00;;;;5041606;28;20347;-74
2023/12/28 07:30:17;;;;;;;8.73;1.83;;;14.60;64.10;15.90;100686.00;;;;5022183;28;20288;-73
2023/12/28 07:32:49;;;;;;;9.10;1.38;;;14.60;64.20;15.90;100689.00;;;;5030827;28;20192;-73
2023/12/28 07:35:21;;;;;;;6.70;1.67;;;14.60;64.10;15.90;100702.00;;;;5045631;28;20199;-74
2023/12/28 07:37:49;;;;;;;8.32;1.73;;;14.60;64.30;15.90;100713.00;;;;5031695;28;20562;-73
2023/12/28 07:40:24;;;;;;;8.25;2.15;;;14.50;64.20;15.80;100708.00;;;;5022264;28;20214;-75
2023/12/28 07:42:56;;;;;;;8.07;1.30;;;14.50;64.40;15.80;100724.00;;;;5024895;28;20707;-73
2023/12/28 07:45:24;;;;;;;4.80;1.60;;;14.50;64.40;15.90;100728.00;;;;5025857;28;20681;-73
2023/12/28 07:47:51;;;;;;;12.77;2.10;;;14.50;64.50;15.90;100726.00;;;;5028651;28;20368;-73
2023/12/28 07:50:18;;;;;;;5.38;1.50;;;14.50;64.40;15.90;100734.00;;;;5032596;28;20192;-74
2023/12/28 07:52:46;;;;;;;4.88;0.85;;;14.50;64.50;15.90;100731.00;;;;5030123;28;20564;-73
2023/12/28 07:55:14;;;;;;;8.75;1.35;;;14.50;64.60;15.90;100746.00;;;;5041773;28;20278;-75
2023/12/28 07:57:41;;;;;;;7.22;1.48;;;14.50;64.60;15.90;100753.00;;;;5040390;28;20195;-73
2023/12/28 08:00:11;;;;;;;10.98;1.63;;;14.50;64.60;15.90;100748.00;;;;5035553;28;20220;-74
2023/12/28 08:02:37;;;;;;;5.45;1.45;;;14.50;64.70;15.90;100754.00;;;;5037932;28;20196;-74
2023/12/28 08:05:06;;;;;;;7.93;1.92;;;14.50;64.70;15.90;100754.00;;;;5029622;28;20201;-73
2023/12/28 08:07:33;;;;;;;10.35;2.10;;;14.60;64.70;15.90;100758.00;;;;5033114;28;20602;-74
2023/12/28 08:10:00;;;;;;;5.53;1.08;;;14.60;64.70;15.90;100745.00;;;;5034931;28;20198;-74
2023/12/28 08:12:28;;;;;;;5.85;1.35;;;14.50;64.60;15.90;100726.00;;;;5034619;28;20212;-74
2023/12/28 08:14:56;;;;;;;7.35;1.92;;;14.60;64.60;15.90;100722.00;;;;5033750;28;20200;-74
2023/12/28 08:17:24;;;;;;;7.32;1.60;;;14.60;64.60;15.90;100738.00;;;;5035358;28;20295;-73
2023/12/28 08:19:51;;;;;;;9.63;1.60;;;14.60;64.70;15.90;100726.00;;;;5033547;28;20188;-73
2023/12/28 08:22:18;;;;;;;7.18;1.52;;;14.60;64.60;16.00;100742.00;;;;5030930;28;20611;-73
2023/12/28 08:24:45;;;;;;;6.82;1.50;;;14.60;64.50;16.00;100741.00;;;;5029084;28;20224;-73
2023/12/28 08:27:12;;;;;;;6.75;1.58;;;14.60;64.70;16.00;100741.00;;;;5030403;28;20215;-72
2023/12/28 08:29:41;;;;;;;6.75;1.42;;;14.60;64.70;16.00;100736.00;;;;5021479;28;20203;-73
2023/12/28 08:32:09;;;;;;;8.32;1.40;;;14.60;64.80;16.10;100744.00;;;;5022335;28;20231;-73
2023/12/28 08:34:37;;;;;;;6.00;1.25;;;14.70;64.80;16.10;100735.00;;;;5031331;28;20195;-73
2023/12/28 08:37:04;;;;;;;7.93;1.25;;;14.70;64.80;16.10;100731.00;;;;5030701;28;20481;-73
2023/12/28 08:39:31;;;;;;;7.95;1.63;;;14.70;64.60;16.10;100742.00;;;;5030039;28;20200;-73
2023/12/28 08:41:59;;;;;;;4.63;1.13;;;14.70;64.70;16.10;100746.00;;;;5040044;28;20204;-74
2023/12/28 08:44:26;;;;;;;9.88;1.35;;;14.70;64.60;16.20;100753.00;;;;5030699;28;20193;-73
2023/12/28 08:46:53;;;;;;;7.30;1.45;;;14.70;64.50;16.20;100762.00;;;;5031356;28;20216;-73
2023/12/28 08:49:22;;;;;;;7.68;1.35;;;14.70;64.50;16.20;100774.00;;;;5032556;28;20196;-73
2023/12/28 08:51:50;;;;;;;8.70;1.80;;;14.80;64.50;16.20;100761.00;;;;5031787;28;20219;-72
2023/12/28 08:54:17;;;;;;;8.35;1.52;;;14.80;64.40;16.20;100768.00;;;;5031843;28;20739;-74
2023/12/28 08:56:44;;;;;;;8.52;1.73;;;14.80;64.30;16.20;100773.00;;;;5047322;28;20199;-74
2023/12/28 08:59:11;;;;;;;7.90;1.55;;;14.80;64.30;16.20;100749.00;;;;5034368;28;20205;-75
2023/12/28 09:01:38;;;;;;;8.20;1.33;;;14.80;64.30;16.20;100767.00;;;;5030999;28;20196;-73
2023/12/28 09:04:05;;;;;;;12.15;1.58;;;14.80;64.30;16.20;100781.00;;;;5033876;28;20199;-73
2023/12/28 09:06:32;;;;;;;8.63;1.92;;;14.80;64.30;16.30;100755.00;;;;5033989;28;20228;-73
2023/12/28 09:09:01;;;;;;;6.75;1.73;;;14.90;64.30;16.20;100759.00;;;;5032390;28;20212;-73
2023/12/28 09:11:29;;;;;;;5.95;1.83;;;14.90;64.20;16.30;100764.00;;;;5021646;28;20731;-74
2023/12/28 09:13:56;;;;;;;8.82;1.55;;;14.90;64.10;16.30;100757.00;;;;5033681;28;20188;-73
2023/12/28 09:16:23;;;;;;;9.07;1.17;;;14.90;64.10;16.30;100767.00;;;;5032050;28;20207;-73
2023/12/28 09:18:50;;;;;;;7.03;1.02;;;14.90;64.50;16.30;100771.00;;;;5032393;28;20668;-73
2023/12/28 09:21:17;;;;;;;6.95;1.15;;;14.90;64.30;16.40;100775.00;;;;5031469;28;20203;-74
2023/12/28 09:23:44;;;;;;;4.45;1.52;;;14.90;64.30;16.40;100769.00;;;;5032347;28;20200;-73
2023/12/28 09:26:13;;;;;;;8.45;1.55;;;15.00;64.10;16.40;100780.00;;;;5031710;28;20188;-74
2023/12/28 09:28:40;;;;;;;9.43;1.73;;;15.00;64.10;16.40;100772.00;;;;5032183;28;20597;-74
2023/12/28 09:31:07;;;;;;;7.47;1.55;;;15.00;64.10;16.40;100772.00;;;;5030911;28;20569;-76
2023/12/28 09:33:41;;;;;;;6.55;1.30;;;15.00;63.90;16.40;100788.00;;;;5030502;28;20204;-73
2023/12/28 09:36:12;;;;;;;6.80;1.85;;;15.10;64.00;16.50;100785.00;;;;5029518;28;20197;-74
2023/12/28 09:38:39;;;;;;;7.25;1.60;;;15.10;63.90;16.50;100791.00;;;;5033224;28;20719;-76
2023/12/28 09:41:15;;;;;;;8.43;2.05;;;15.10;64.00;16.50;100797.00;;;;5028302;28;20287;-72
2023/12/28 09:43:55;;;;;;;10.07;2.60;;;15.10;63.90;16.50;100771.00;;;;5031468;28;20578;-74
2023/12/28 09:46:22;;;;;;;10.30;1.70;;;15.10;63.90;16.60;100810.00;;;;5031908;28;20649;-75
2023/12/28 09:48:50;;;;;;;9.60;2.22;;;15.20;63.70;16.60;100808.00;;;;5028972;28;20230;-73
2023/12/28 09:51:17;;;;;;;8.23;1.73;;;15.20;63.80;16.60;100811.00;;;;5022052;28;20201;-76
2023/12/28 09:53:45;;;;;;;6.32;1.27;;;15.20;63.60;16.70;100816.00;;;;5020055;28;20213;-72
2023/12/28 09:56:15;;;;;;;7.80;1.48;;;15.20;63.60;16.70;100821.00;;;;5019380;28;20221;-73
2023/12/28 09:58:43;;;;;;;6.25;1.25;;;15.30;63.50;16.70;100813.00;;;;5021911;28;20200;-72
2023/12/28 10:01:11;;;;;;;9.05;1.73;;;15.40;63.50;16.80;100809.00;;;;5032369;28;20200;-72
2023/12/28 10:03:38;;;;;;;6.85;1.58;;;15.40;63.60;16.80;100817.00;;;;5032067;28;20295;-73
2023/12/28 10:06:06;;;;;;;7.47;1.70;;;15.40;63.30;16.80;100812.00;;;;5027878;28;20228;-74
2023/12/28 10:08:33;;;;;;;10.15;1.50;;;15.40;63.40;16.80;100816.00;;;;5032329;28;21576;-74
2023/12/28 10:11:00;;;;;;;10.65;1.27;;;15.40;63.30;16.80;100812.00;;;;5022310;28;20641;-74
2023/12/28 10:13:30;;;;;;;9.88;2.00;;;15.40;63.10;16.80;100809.00;;;;5026785;28;20207;-74
2023/12/28 10:15:58;;;;;;;10.45;1.85;;;15.40;63.00;16.80;100829.00;;;;5035290;28;20193;-73
2023/12/28 10:18:25;;;;;;;9.65;1.90;;;15.40;63.00;16.80;100806.00;;;;5026881;28;20196;-72
2023/12/28 10:20:54;;;;;;;5.07;1.25;;;15.40;62.80;16.80;100822.00;;;;5030573;28;20203;-75
2023/12/28 10:23:21;;;;;;;8.27;2.35;;;15.40;62.80;16.80;100809.00;;;;5030714;28;20201;-75
2023/12/28 10:25:53;;;;;;;6.28;1.77;;;15.40;62.90;16.80;100818.00;;;;5032149;28;20676;-75
2023/12/28 10:28:20;;;;;;;9.70;2.20;;;15.50;63.20;16.80;100814.00;;;;5032218;28;20232;-72
2023/12/28 10:30:49;;;;;;;10.65;1.75;;;15.50;63.20;16.90;100806.00;;;;5029129;28;20192;-74
2023/12/28 10:33:19;;;;;;;9.75;2.13;;;15.50;63.00;16.90;100823.00;;;;5035687;28;20200;-74
2023/12/28 10:35:46;;;;;;;8.65;1.88;;;15.50;62.90;16.90;100826.00;;;;5030429;28;20219;-74
2023/12/28 10:38:17;;;;;;;11.48;2.42;;;15.50;63.00;16.90;100809.00;;;;5031188;28;20194;-74
2023/12/28 10:40:45;;;;;;;6.35;1.60;;;15.50;62.90;16.90;100827.00;;;;5030810;28;20204;-73
2023/12/28 10:43:16;;;;;;;9.48;2.40;;;15.50;63.00;16.90;100824.00;;;;5031450;28;20201;-73
2023/12/28 10:45:52;;;;;;;7.10;1.63;;;15.50;62.80;16.90;100833.00;;;;5029738;28;20198;-76
2023/12/28 10:48:30;;;;;;;8.18;1.65;;;15.60;62.60;16.90;100829.00;;;;5027872;28;20227;-73
2023/12/28 10:51:01;;;;;;;6.43;1.35;;;15.60;62.70;17.00;100827.00;;;;5051906;28;20206;-74